sensor_id;sensor_type;location;lat;lon;timestamp;pressure;altitude;pressure_sealevel;temperature;humidity
70544;BME280;58097;48.364;-1.224;2022-08-01T00:00:33;100085.16;;;20.23;69.72
70544;BME280;58097;48.364;-1.224;2022-08-01T00:02:59;100079.97;;;20.20;70.28
70544;BME280;58097;48.364;-1.224;2022-08-01T00:05:25;100088.41;;;20.20;69.38
70544;BME280;58097;48.364;-1.224;2022-08-01T00:07:51;100084.50;;;20.21;69.89
70544;BME280;58097;48.364;-1.224;2022-08-01T00:10:17;100083.44;;;20.22;69.74
70544;BME280;58097;48.364;-1.224;2022-08-01T00:12:44;100084.97;;;20.24;69.19
70544;BME280;58097;48.364;-1.224;2022-08-01T00:15:12;100078.69;;;20.29;69.69
70544;BME280;58097;48.364;-1.224;2022-08-01T00:17:39;100074.59;;;20.25;69.37
70544;BME280;58097;48.364;-1.224;2022-08-01T00:20:07;100081.25;;;20.24;69.92
70544;BME280;58097;48.364;-1.224;2022-08-01T00:22:33;100070.72;;;20.13;70.28
70544;BME280;58097;48.364;-1.224;2022-08-01T00:24:59;100070.09;;;20.10;70.31
70544;BME280;58097;48.364;-1.224;2022-08-01T00:27:25;100071.38;;;20.15;69.58
70544;BME280;58097;48.364;-1.224;2022-08-01T00:29:50;100072.00;;;20.17;69.42
70544;BME280;58097;48.364;-1.224;2022-08-01T00:32:16;100070.47;;;20.21;69.58
70544;BME280;58097;48.364;-1.224;2022-08-01T00:34:42;100069.84;;;20.25;69.38
70544;BME280;58097;48.364;-1.224;2022-08-01T00:37:07;100067.47;;;20.29;69.39
70544;BME280;58097;48.364;-1.224;2022-08-01T00:39:33;100077.19;;;20.26;69.60
70544;BME280;58097;48.364;-1.224;2022-08-01T00:42:00;100070.03;;;20.24;69.52
70544;BME280;58097;48.364;-1.224;2022-08-01T00:44:26;100067.91;;;20.26;69.44
70544;BME280;58097;48.364;-1.224;2022-08-01T00:46:52;100066.38;;;20.23;69.76
70544;BME280;58097;48.364;-1.224;2022-08-01T00:49:18;100061.00;;;20.15;69.37
70544;BME280;58097;48.364;-1.224;2022-08-01T00:51:43;100057.78;;;20.11;70.49
70544;BME280;58097;48.364;-1.224;2022-08-01T00:54:09;100057.59;;;20.06;69.46
70544;BME280;58097;48.364;-1.224;2022-08-01T00:56:35;100057.16;;;20.09;69.47
70544;BME280;58097;48.364;-1.224;2022-08-01T00:59:03;100053.25;;;20.10;70.57
70544;BME280;58097;48.364;-1.224;2022-08-01T01:01:31;100064.25;;;20.12;69.56
70544;BME280;58097;48.364;-1.224;2022-08-01T01:03:56;100059.09;;;20.02;70.46
70544;BME280;58097;48.364;-1.224;2022-08-01T01:06:36;100052.84;;;20.00;70.26
70544;BME280;58097;48.364;-1.224;2022-08-01T01:12:24;100057.19;;;19.96;70.20
70544;BME280;58097;48.364;-1.224;2022-08-01T01:15:10;100064.53;;;19.97;70.01
70544;BME280;58097;48.364;-1.224;2022-08-01T01:17:45;100061.25;;;19.94;70.95
70544;BME280;58097;48.364;-1.224;2022-08-01T01:20:13;100062.13;;;19.94;69.77
70544;BME280;58097;48.364;-1.224;2022-08-01T01:23:05;100056.53;;;19.88;70.52
70544;BME280;58097;48.364;-1.224;2022-08-01T01:25:39;100049.63;;;19.84;70.23
70544;BME280;58097;48.364;-1.224;2022-08-01T01:31:02;100053.94;;;19.86;69.40
70544;BME280;58097;48.364;-1.224;2022-08-01T01:33:33;100047.91;;;19.83;70.12
70544;BME280;58097;48.364;-1.224;2022-08-01T01:36:05;100049.44;;;19.78;70.15
70544;BME280;58097;48.364;-1.224;2022-08-01T01:38:39;100051.59;;;19.76;69.81
70544;BME280;58097;48.364;-1.224;2022-08-01T01:41:11;100049.22;;;19.73;70.41
70544;BME280;58097;48.364;-1.224;2022-08-01T01:43:39;100046.84;;;19.77;69.76
70544;BME280;58097;48.364;-1.224;2022-08-01T01:46:05;100042.31;;;19.76;70.20
70544;BME280;58097;48.364;-1.224;2022-08-01T01:48:33;100047.94;;;19.76;70.24
70544;BME280;58097;48.364;-1.224;2022-08-01T01:51:01;100046.22;;;19.68;69.95
70544;BME280;58097;48.364;-1.224;2022-08-01T01:53:28;100039.53;;;19.69;70.44
70544;BME280;58097;48.364;-1.224;2022-08-01T01:55:57;100033.47;;;19.66;70.45
70544;BME280;58097;48.364;-1.224;2022-08-01T01:58:25;100031.75;;;19.65;69.72
70544;BME280;58097;48.364;-1.224;2022-08-01T02:00:54;100033.91;;;19.63;70.02
70544;BME280;58097;48.364;-1.224;2022-08-01T02:03:21;100041.69;;;19.61;70.25
70544;BME280;58097;48.364;-1.224;2022-08-01T02:05:47;100031.09;;;19.63;70.40
70544;BME280;58097;48.364;-1.224;2022-08-01T02:08:15;100034.34;;;19.60;70.17
70544;BME280;58097;48.364;-1.224;2022-08-01T02:10:42;100029.81;;;19.59;70.41
70544;BME280;58097;48.364;-1.224;2022-08-01T02:13:34;100031.75;;;19.58;70.61
70544;BME280;58097;48.364;-1.224;2022-08-01T02:16:03;100030.69;;;19.59;70.44
70544;BME280;58097;48.364;-1.224;2022-08-01T02:18:29;100030.47;;;19.54;71.36
70544;BME280;58097;48.364;-1.224;2022-08-01T02:20:56;100036.50;;;19.44;71.23
70544;BME280;58097;48.364;-1.224;2022-08-01T02:23:24;100040.16;;;19.38;70.97
70544;BME280;58097;48.364;-1.224;2022-08-01T02:25:54;100040.78;;;19.34;71.41
70544;BME280;58097;48.364;-1.224;2022-08-01T02:28:25;100030.88;;;19.31;71.20
70544;BME280;58097;48.364;-1.224;2022-08-01T02:30:59;100027.63;;;19.34;70.96
70544;BME280;58097;48.364;-1.224;2022-08-01T02:33:37;100027.84;;;19.33;71.36
70544;BME280;58097;48.364;-1.224;2022-08-01T02:36:03;100031.53;;;19.33;71.19
70544;BME280;58097;48.364;-1.224;2022-08-01T02:38:33;100027.84;;;19.33;71.27
70544;BME280;58097;48.364;-1.224;2022-08-01T02:41:12;100031.31;;;19.28;72.70
70544;BME280;58097;48.364;-1.224;2022-08-01T02:43:43;100024.19;;;19.26;71.98
70544;BME280;58097;48.364;-1.224;2022-08-01T02:46:36;100024.63;;;19.29;71.45
70544;BME280;58097;48.364;-1.224;2022-08-01T02:49:06;100027.00;;;19.32;71.32
70544;BME280;58097;48.364;-1.224;2022-08-01T02:51:33;100029.56;;;19.34;72.12
70544;BME280;58097;48.364;-1.224;2022-08-01T02:54:02;100023.97;;;19.34;71.21
70544;BME280;58097;48.364;-1.224;2022-08-01T02:56:31;100028.28;;;19.30;71.94
70544;BME280;58097;48.364;-1.224;2022-08-01T02:59:07;100031.75;;;19.32;71.88
70544;BME280;58097;48.364;-1.224;2022-08-01T03:01:35;100027.00;;;19.32;71.76
70544;BME280;58097;48.364;-1.224;2022-08-01T03:04:03;100024.44;;;19.37;72.52
70544;BME280;58097;48.364;-1.224;2022-08-01T03:06:31;100027.00;;;19.32;72.09
70544;BME280;58097;48.364;-1.224;2022-08-01T03:09:03;100022.03;;;19.34;71.74
70544;BME280;58097;48.364;-1.224;2022-08-01T03:11:30;100021.81;;;19.36;72.63
70544;BME280;58097;48.364;-1.224;2022-08-01T03:13:59;100023.53;;;19.37;72.47
70544;BME280;58097;48.364;-1.224;2022-08-01T03:16:28;100023.75;;;19.35;72.05
70544;BME280;58097;48.364;-1.224;2022-08-01T03:18:56;100023.75;;;19.35;71.80
70544;BME280;58097;48.364;-1.224;2022-08-01T03:21:23;100020.72;;;19.37;72.29
70544;BME280;58097;48.364;-1.224;2022-08-01T03:23:50;100016.66;;;19.39;71.44
70544;BME280;58097;48.364;-1.224;2022-08-01T03:26:24;100022.91;;;19.41;71.80
70544;BME280;58097;48.364;-1.224;2022-08-01T03:28:52;100013.22;;;19.37;71.78
70544;BME280;58097;48.364;-1.224;2022-08-01T03:31:21;100009.34;;;19.38;71.58
70544;BME280;58097;48.364;-1.224;2022-08-01T03:33:46;100011.72;;;19.41;71.31
70544;BME280;58097;48.364;-1.224;2022-08-01T03:36:12;100014.06;;;19.44;71.41
70544;BME280;58097;48.364;-1.224;2022-08-01T03:38:40;100010.84;;;19.47;71.53
70544;BME280;58097;48.364;-1.224;2022-08-01T03:41:14;100011.47;;;19.49;71.30
70544;BME280;58097;48.364;-1.224;2022-08-01T03:43:46;100009.31;;;19.52;71.05
70544;BME280;58097;48.364;-1.224;2022-08-01T03:46:20;100013.44;;;19.56;71.14
70544;BME280;58097;48.364;-1.224;2022-08-01T03:48:48;100022.28;;;19.59;70.80
70544;BME280;58097;48.364;-1.224;2022-08-01T03:51:18;100021.84;;;19.62;71.06
70544;BME280;58097;48.364;-1.224;2022-08-01T03:53:45;100016.22;;;19.62;70.99
70544;BME280;58097;48.364;-1.224;2022-08-01T03:56:12;100016.88;;;19.64;70.80
70544;BME280;58097;48.364;-1.224;2022-08-01T03:58:42;100015.38;;;19.68;71.07
70544;BME280;58097;48.364;-1.224;2022-08-01T04:01:09;100014.31;;;19.69;70.59
70544;BME280;58097;48.364;-1.224;2022-08-01T04:03:35;100015.16;;;19.70;70.60
70544;BME280;58097;48.364;-1.224;2022-08-01T04:06:04;100023.56;;;19.70;70.65
70544;BME280;58097;48.364;-1.224;2022-08-01T04:08:38;100016.03;;;19.70;70.44
70544;BME280;58097;48.364;-1.224;2022-08-01T04:11:04;100017.97;;;19.70;70.52
70544;BME280;58097;48.364;-1.224;2022-08-01T04:13:31;100029.19;;;19.70;70.25
70544;BME280;58097;48.364;-1.224;2022-08-01T04:15:58;100026.38;;;19.70;70.58
70544;BME280;58097;48.364;-1.224;2022-08-01T04:18:23;100019.06;;;19.69;70.63
70544;BME280;58097;48.364;-1.224;2022-08-01T04:20:49;100011.25;;;19.64;70.68
70544;BME280;58097;48.364;-1.224;2022-08-01T04:23:18;100013.84;;;19.66;70.92
70544;BME280;58097;48.364;-1.224;2022-08-01T04:25:45;100014.06;;;19.64;70.74
70544;BME280;58097;48.364;-1.224;2022-08-01T04:28:14;100016.88;;;19.64;70.39
70544;BME280;58097;48.364;-1.224;2022-08-01T04:30:43;100011.94;;;19.66;70.68
70544;BME280;58097;48.364;-1.224;2022-08-01T04:33:13;100012.81;;;19.67;70.61
70544;BME280;58097;48.364;-1.224;2022-08-01T04:35:43;100006.97;;;19.68;70.38
70544;BME280;58097;48.364;-1.224;2022-08-01T04:38:12;100019.69;;;19.71;70.64
70544;BME280;58097;48.364;-1.224;2022-08-01T04:40:41;100016.66;;;19.66;70.16
70544;BME280;58097;48.364;-1.224;2022-08-01T04:43:08;100017.94;;;19.63;70.54
70544;BME280;58097;48.364;-1.224;2022-08-01T04:45:35;100024.00;;;19.67;70.55
70544;BME280;58097;48.364;-1.224;2022-08-01T04:48:01;100027.47;;;19.69;70.63
70544;BME280;58097;48.364;-1.224;2022-08-01T04:50:32;100025.06;;;19.66;70.44
70544;BME280;58097;48.364;-1.224;2022-08-01T04:52:58;100025.28;;;19.64;70.41
70544;BME280;58097;48.364;-1.224;2022-08-01T04:55:23;100034.38;;;19.66;70.29
70544;BME280;58097;48.364;-1.224;2022-08-01T04:57:49;100035.22;;;19.67;70.56
70544;BME280;58097;48.364;-1.224;2022-08-01T05:00:14;100042.34;;;19.69;70.49
70544;BME280;58097;48.364;-1.224;2022-08-01T05:02:42;100020.34;;;19.73;70.26
70544;BME280;58097;48.364;-1.224;2022-08-01T05:05:07;100039.09;;;19.72;70.30
70544;BME280;58097;48.364;-1.224;2022-08-01T05:07:33;100039.97;;;19.73;70.32
70544;BME280;58097;48.364;-1.224;2022-08-01T05:10:03;100031.53;;;19.73;70.09
70544;BME280;58097;48.364;-1.224;2022-08-01T05:12:28;100033.91;;;19.76;70.35
70544;BME280;58097;48.364;-1.224;2022-08-01T05:14:54;100034.78;;;19.76;70.42
70544;BME280;58097;48.364;-1.224;2022-08-01T05:17:19;100032.19;;;19.75;70.42
70544;BME280;58097;48.364;-1.224;2022-08-01T05:19:46;100033.69;;;19.77;69.99
70544;BME280;58097;48.364;-1.224;2022-08-01T05:22:11;100031.09;;;19.76;70.20
70544;BME280;58097;48.364;-1.224;2022-08-01T05:24:39;100032.19;;;19.75;69.99
70544;BME280;58097;48.364;-1.224;2022-08-01T05:27:05;100041.91;;;19.72;70.01
70544;BME280;58097;48.364;-1.224;2022-08-01T05:29:31;100036.94;;;19.74;70.07
70544;BME280;58097;48.364;-1.224;2022-08-01T05:32:00;100042.09;;;19.77;69.95
70544;BME280;58097;48.364;-1.224;2022-08-01T05:34:27;100035.84;;;19.75;69.99
70544;BME280;58097;48.364;-1.224;2022-08-01T05:36:53;100033.91;;;19.76;70.38
70544;BME280;58097;48.364;-1.224;2022-08-01T05:39:18;100046.00;;;19.76;70.31
70544;BME280;58097;48.364;-1.224;2022-08-01T05:41:44;100051.59;;;19.76;70.26
70544;BME280;58097;48.364;-1.224;2022-08-01T05:44:09;100057.00;;;19.78;70.45
70544;BME280;58097;48.364;-1.224;2022-08-01T05:46:35;100053.09;;;19.79;70.26
70544;BME280;58097;48.364;-1.224;2022-08-01T05:49:03;100047.72;;;19.77;70.01
70544;BME280;58097;48.364;-1.224;2022-08-01T05:51:29;100057.00;;;19.78;70.14
70544;BME280;58097;48.364;-1.224;2022-08-01T05:53:56;100053.97;;;19.79;70.49
70544;BME280;58097;48.364;-1.224;2022-08-01T05:56:22;100044.25;;;19.75;70.70
70544;BME280;58097;48.364;-1.224;2022-08-01T05:58:48;100041.88;;;19.79;70.38
70544;BME280;58097;48.364;-1.224;2022-08-01T06:01:15;100055.47;;;19.82;70.46
70544;BME280;58097;48.364;-1.224;2022-08-01T06:03:40;100053.09;;;19.86;70.68
70544;BME280;58097;48.364;-1.224;2022-08-01T06:06:06;100054.38;;;19.90;70.59
70544;BME280;58097;48.364;-1.224;2022-08-01T06:08:31;100040.53;;;19.95;70.57
70544;BME280;58097;48.364;-1.224;2022-08-01T06:10:58;100052.44;;;19.97;70.50
70544;BME280;58097;48.364;-1.224;2022-08-01T06:13:23;100068.81;;;20.06;70.56
70544;BME280;58097;48.364;-1.224;2022-08-01T06:15:49;100073.31;;;20.14;70.10
70544;BME280;58097;48.364;-1.224;2022-08-01T06:18:15;100062.06;;;20.21;70.24
70544;BME280;58097;48.364;-1.224;2022-08-01T06:20:41;100067.91;;;20.26;70.16
70544;BME280;58097;48.364;-1.224;2022-08-01T06:23:08;100062.28;;;20.26;70.03
70544;BME280;58097;48.364;-1.224;2022-08-01T06:25:33;100074.16;;;20.28;69.97
70544;BME280;58097;48.364;-1.224;2022-08-01T06:28:00;100078.03;;;20.27;69.65
70544;BME280;58097;48.364;-1.224;2022-08-01T06:30:26;100070.03;;;20.24;69.55
70544;BME280;58097;48.364;-1.224;2022-08-01T06:32:51;100056.22;;;20.22;69.94
70544;BME280;58097;48.364;-1.224;2022-08-01T06:35:18;100065.50;;;20.23;69.52
70544;BME280;58097;48.364;-1.224;2022-08-01T06:37:43;100058.41;;;20.27;69.64
70544;BME280;58097;48.364;-1.224;2022-08-01T06:40:11;100056.22;;;20.22;69.80
70544;BME280;58097;48.364;-1.224;2022-08-01T06:42:37;100058.81;;;20.24;69.72
70544;BME280;58097;48.364;-1.224;2022-08-01T06:45:04;100058.81;;;20.24;69.73
70544;BME280;58097;48.364;-1.224;2022-08-01T06:47:30;100058.41;;;20.27;70.01
70544;BME280;58097;48.364;-1.224;2022-08-01T06:49:56;100065.75;;;20.28;69.50
70544;BME280;58097;48.364;-1.224;2022-08-01T06:52:21;100066.59;;;20.28;69.73
70544;BME280;58097;48.364;-1.224;2022-08-01T06:54:47;100074.38;;;20.26;69.71
70544;BME280;58097;48.364;-1.224;2022-08-01T06:57:13;100069.00;;;20.25;69.47
70544;BME280;58097;48.364;-1.224;2022-08-01T06:59:38;100069.19;;;20.23;69.68
70544;BME280;58097;48.364;-1.224;2022-08-01T07:02:04;100073.06;;;20.22;69.44
70544;BME280;58097;48.364;-1.224;2022-08-01T07:04:29;100076.53;;;20.24;69.26
70544;BME280;58097;48.364;-1.224;2022-08-01T07:06:55;100083.44;;;20.28;69.40
70544;BME280;58097;48.364;-1.224;2022-08-01T07:09:21;100089.69;;;20.30;69.68
70544;BME280;58097;48.364;-1.224;2022-08-01T07:11:47;100086.03;;;20.30;69.43
70544;BME280;58097;48.364;-1.224;2022-08-01T07:14:12;100074.78;;;20.30;69.59
70544;BME280;58097;48.364;-1.224;2022-08-01T07:16:38;100075.47;;;20.25;69.36
70544;BME280;58097;48.364;-1.224;2022-08-01T07:19:03;100070.94;;;20.24;69.33
70544;BME280;58097;48.364;-1.224;2022-08-01T07:21:29;100080.84;;;20.27;69.36
70544;BME280;58097;48.364;-1.224;2022-08-01T07:23:54;100078.88;;;20.34;69.73
70544;BME280;58097;48.364;-1.224;2022-08-01T07:26:20;100081.25;;;20.37;69.41
70544;BME280;58097;48.364;-1.224;2022-08-01T07:28:45;100081.25;;;20.37;69.60
70544;BME280;58097;48.364;-1.224;2022-08-01T07:31:11;100083.81;;;20.45;69.46
70544;BME280;58097;48.364;-1.224;2022-08-01T07:33:37;100086.22;;;20.41;69.18
70544;BME280;58097;48.364;-1.224;2022-08-01T07:36:02;100084.06;;;20.37;69.51
70544;BME280;58097;48.364;-1.224;2022-08-01T07:38:29;100076.06;;;20.40;69.34
70544;BME280;58097;48.364;-1.224;2022-08-01T07:40:55;100081.25;;;20.44;69.01
70544;BME280;58097;48.364;-1.224;2022-08-01T07:43:20;100086.81;;;20.50;69.31
70544;BME280;58097;48.364;-1.224;2022-08-01T07:45:46;100081.44;;;20.55;69.04
70544;BME280;58097;48.364;-1.224;2022-08-01T07:48:11;100083.34;;;20.61;68.95
70544;BME280;58097;48.364;-1.224;2022-08-01T07:50:37;100076.19;;;20.65;68.44
70544;BME280;58097;48.364;-1.224;2022-08-01T07:53:03;100075.31;;;20.71;68.38
70544;BME280;58097;48.364;-1.224;2022-08-01T07:55:29;100080.66;;;20.80;68.63
70544;BME280;58097;48.364;-1.224;2022-08-01T07:57:55;100080.00;;;20.84;68.44
70544;BME280;58097;48.364;-1.224;2022-08-01T08:00:20;100087.13;;;20.87;68.53
70544;BME280;58097;48.364;-1.224;2022-08-01T08:02:46;100089.28;;;20.85;68.44
70544;BME280;58097;48.364;-1.224;2022-08-01T08:05:11;100084.53;;;20.85;68.07
70544;BME280;58097;48.364;-1.224;2022-08-01T08:07:38;100086.72;;;20.83;68.29
70544;BME280;58097;48.364;-1.224;2022-08-01T08:10:04;100084.75;;;20.84;68.20
70544;BME280;58097;48.364;-1.224;2022-08-01T08:12:30;100090.16;;;20.79;67.64
70544;BME280;58097;48.364;-1.224;2022-08-01T08:14:56;100100.75;;;20.77;67.86
70544;BME280;58097;48.364;-1.224;2022-08-01T08:17:24;100108.53;;;20.75;67.79
70544;BME280;58097;48.364;-1.224;2022-08-01T08:19:50;100106.59;;;20.75;67.75
70544;BME280;58097;48.364;-1.224;2022-08-01T08:22:16;100110.28;;;20.76;67.64
70544;BME280;58097;48.364;-1.224;2022-08-01T08:24:41;100101.63;;;20.77;67.77
70544;BME280;58097;48.364;-1.224;2022-08-01T08:27:07;100098.81;;;20.77;67.60
70544;BME280;58097;48.364;-1.224;2022-08-01T08:29:33;100104.66;;;20.76;67.39
70544;BME280;58097;48.364;-1.224;2022-08-01T08:31:59;100098.81;;;20.77;67.99
70544;BME280;58097;48.364;-1.224;2022-08-01T08:34:26;100096.22;;;20.82;67.74
70544;BME280;58097;48.364;-1.224;2022-08-01T08:36:53;100101.16;;;20.87;67.62
70544;BME280;58097;48.364;-1.224;2022-08-01T08:39:20;100102.66;;;20.89;67.22
70544;BME280;58097;48.364;-1.224;2022-08-01T08:41:46;100100.75;;;20.83;67.39
70544;BME280;58097;48.364;-1.224;2022-08-01T08:44:12;100102.25;;;20.86;67.57
70544;BME280;58097;48.364;-1.224;2022-08-01T08:46:41;100103.53;;;20.90;67.37
70544;BME280;58097;48.364;-1.224;2022-08-01T08:49:07;100105.66;;;20.94;67.19
70544;BME280;58097;48.364;-1.224;2022-08-01T08:51:34;100101.97;;;20.94;67.17
70544;BME280;58097;48.364;-1.224;2022-08-01T08:54:03;100109.09;;;20.96;67.63
70544;BME280;58097;48.364;-1.224;2022-08-01T08:56:30;100115.34;;;20.98;67.28
70544;BME280;58097;48.364;-1.224;2022-08-01T08:59:00;100115.34;;;20.98;67.37
70544;BME280;58097;48.364;-1.224;2022-08-01T09:01:26;100117.31;;;20.98;67.27
70544;BME280;58097;48.364;-1.224;2022-08-01T09:03:53;100115.13;;;21.00;67.18
70544;BME280;58097;48.364;-1.224;2022-08-01T09:06:19;100119.66;;;21.01;67.12
70544;BME280;58097;48.364;-1.224;2022-08-01T09:08:45;100122.88;;;21.04;67.19
70544;BME280;58097;48.364;-1.224;2022-08-01T09:11:10;100125.47;;;21.06;66.94
70544;BME280;58097;48.364;-1.224;2022-08-01T09:13:36;100130.63;;;21.09;66.79
70544;BME280;58097;48.364;-1.224;2022-08-01T09:16:01;100138.44;;;21.07;66.41
70544;BME280;58097;48.364;-1.224;2022-08-01T09:18:47;100140.19;;;21.01;66.56
70544;BME280;58097;48.364;-1.224;2022-08-01T09:21:18;100137.38;;;21.01;66.65
70544;BME280;58097;48.364;-1.224;2022-08-01T09:23:48;100129.41;;;20.98;66.17
70544;BME280;58097;48.364;-1.224;2022-08-01T09:26:18;100126.59;;;20.98;66.38
70544;BME280;58097;48.364;-1.224;2022-08-01T09:28:45;100122.50;;;20.94;66.08
70544;BME280;58097;48.364;-1.224;2022-08-01T09:31:14;100124.47;;;20.94;66.45
70544;BME280;58097;48.364;-1.224;2022-08-01T09:34:01;100130.44;;;21.04;66.47
70544;BME280;58097;48.364;-1.224;2022-08-01T09:36:56;100129.34;;;21.12;66.75
70544;BME280;58097;48.364;-1.224;2022-08-01T09:39:26;100127.59;;;21.17;66.54
70544;BME280;58097;48.364;-1.224;2022-08-01T09:41:54;100124.31;;;21.20;66.31
70544;BME280;58097;48.364;-1.224;2022-08-01T09:44:37;100132.75;;;21.27;66.49
70544;BME280;58097;48.364;-1.224;2022-08-01T09:47:03;100136.59;;;21.32;66.86
70544;BME280;58097;48.364;-1.224;2022-08-01T09:49:31;100134.78;;;21.45;66.76
70544;BME280;58097;48.364;-1.224;2022-08-01T09:51:59;100131.06;;;21.51;66.40
70544;BME280;58097;48.364;-1.224;2022-08-01T09:54:35;100126.47;;;21.56;65.24
70544;BME280;58097;48.364;-1.224;2022-08-01T09:57:13;100128.03;;;21.52;65.61
70544;BME280;58097;48.364;-1.224;2022-08-01T09:59:43;100133.47;;;21.47;65.39
70544;BME280;58097;48.364;-1.224;2022-08-01T10:02:10;100131.75;;;21.46;66.02
70544;BME280;58097;48.364;-1.224;2022-08-01T10:04:46;100134.75;;;21.51;65.93
70544;BME280;58097;48.364;-1.224;2022-08-01T10:07:12;100134.06;;;21.56;65.47
70544;BME280;58097;48.364;-1.224;2022-08-01T10:09:41;100134.06;;;21.56;66.00
70544;BME280;58097;48.364;-1.224;2022-08-01T10:12:08;100138.53;;;21.63;65.77
70544;BME280;58097;48.364;-1.224;2022-08-01T10:14:36;100130.06;;;21.70;65.58
70544;BME280;58097;48.364;-1.224;2022-08-01T10:17:04;100137.59;;;21.76;65.85
70544;BME280;58097;48.364;-1.224;2022-08-01T10:19:32;100146.44;;;21.80;65.35
70544;BME280;58097;48.364;-1.224;2022-08-01T10:22:00;100138.16;;;21.85;65.42
70544;BME280;58097;48.364;-1.224;2022-08-01T10:24:29;100129.47;;;21.86;65.13
70544;BME280;58097;48.364;-1.224;2022-08-01T10:27:02;100130.97;;;21.89;64.38
70544;BME280;58097;48.364;-1.224;2022-08-01T10:29:33;100146.66;;;21.78;64.26
70544;BME280;58097;48.364;-1.224;2022-08-01T10:32:01;100143.28;;;21.70;64.61
70544;BME280;58097;48.364;-1.224;2022-08-01T10:34:27;100154.09;;;21.66;64.65
70544;BME280;58097;48.364;-1.224;2022-08-01T10:36:53;100162.34;;;21.61;64.89
70544;BME280;58097;48.364;-1.224;2022-08-01T10:39:22;100156.31;;;21.57;65.23
70544;BME280;58097;48.364;-1.224;2022-08-01T10:41:50;100134.28;;;21.54;65.10
70544;BME280;58097;48.364;-1.224;2022-08-01T10:44:17;100122.19;;;21.54;65.09
70544;BME280;58097;48.364;-1.224;2022-08-01T10:46:48;100140.94;;;21.60;65.26
70544;BME280;58097;48.364;-1.224;2022-08-01T10:49:17;100130.72;;;21.65;65.32
70544;BME280;58097;48.364;-1.224;2022-08-01T10:51:44;100131.34;;;21.68;65.08
70544;BME280;58097;48.364;-1.224;2022-08-01T10:54:12;100128.75;;;21.73;65.07
70544;BME280;58097;48.364;-1.224;2022-08-01T10:56:57;100137.41;;;21.71;64.75
70544;BME280;58097;48.364;-1.224;2022-08-01T10:59:27;100138.03;;;21.73;65.02
70544;BME280;58097;48.364;-1.224;2022-08-01T11:01:58;100130.69;;;21.72;65.00
70544;BME280;58097;48.364;-1.224;2022-08-01T11:07:22;100133.75;;;21.71;65.18
70544;BME280;58097;48.364;-1.224;2022-08-01T11:10:04;100140.22;;;21.71;65.10
70544;BME280;58097;48.364;-1.224;2022-08-01T11:12:39;100141.91;;;21.79;65.00
70544;BME280;58097;48.364;-1.224;2022-08-01T11:15:20;100130.56;;;21.85;65.02
70544;BME280;58097;48.364;-1.224;2022-08-01T11:18:30;100127.47;;;21.93;64.87
70544;BME280;58097;48.364;-1.224;2022-08-01T11:21:00;100137.63;;;21.94;64.48
70544;BME280;58097;48.364;-1.224;2022-08-01T11:23:28;100140.44;;;21.94;64.25
70544;BME280;58097;48.364;-1.224;2022-08-01T11:26:11;100132.00;;;21.94;64.54
70544;BME280;58097;48.364;-1.224;2022-08-01T11:28:37;100132.88;;;21.95;64.38
70544;BME280;58097;48.364;-1.224;2022-08-01T11:33:48;100130.28;;;21.93;64.70
70544;BME280;58097;48.364;-1.224;2022-08-01T11:36:18;100132.81;;;22.02;64.93
70544;BME280;58097;48.364;-1.224;2022-08-01T11:41:33;100122.97;;;22.36;65.06
70544;BME280;58097;48.364;-1.224;2022-08-01T11:44:20;100130.91;;;22.64;65.12
70544;BME280;58097;48.364;-1.224;2022-08-01T11:52:04;100122.50;;;22.75;62.86
70544;BME280;58097;48.364;-1.224;2022-08-01T11:54:36;100121.34;;;22.83;63.54
70544;BME280;58097;48.364;-1.224;2022-08-01T11:57:08;100110.16;;;22.95;63.88
70544;BME280;58097;48.364;-1.224;2022-08-01T11:59:42;100109.22;;;23.01;63.15
70544;BME280;58097;48.364;-1.224;2022-08-01T12:02:31;100112.28;;;22.99;62.74
70544;BME280;58097;48.364;-1.224;2022-08-01T12:05:18;100112.41;;;23.04;63.00
70544;BME280;58097;48.364;-1.224;2022-08-01T12:07:49;100111.69;;;23.09;63.00
70544;BME280;58097;48.364;-1.224;2022-08-01T12:10:18;100116.66;;;23.13;63.47
70544;BME280;58097;48.364;-1.224;2022-08-01T12:12:46;100116.78;;;23.18;62.90
70544;BME280;58097;48.364;-1.224;2022-08-01T12:15:12;100123.28;;;23.19;62.62
70544;BME280;58097;48.364;-1.224;2022-08-01T12:17:44;100112.63;;;23.21;62.24
70544;BME280;58097;48.364;-1.224;2022-08-01T12:20:12;100118.66;;;23.25;62.49
70544;BME280;58097;48.364;-1.224;2022-08-01T12:22:39;100115.34;;;23.28;62.28
70544;BME280;58097;48.364;-1.224;2022-08-01T12:25:07;100123.66;;;23.23;62.00
70544;BME280;58097;48.364;-1.224;2022-08-01T12:27:35;100120.84;;;23.23;62.48
70544;BME280;58097;48.364;-1.224;2022-08-01T12:30:02;100125.63;;;23.22;62.44
70544;BME280;58097;48.364;-1.224;2022-08-01T12:32:32;100121.09;;;23.21;61.41
70544;BME280;58097;48.364;-1.224;2022-08-01T12:35:16;100118.81;;;23.11;61.39
70544;BME280;58097;48.364;-1.224;2022-08-01T12:37:44;100120.09;;;22.97;61.24
70544;BME280;58097;48.364;-1.224;2022-08-01T12:40:19;100120.97;;;22.98;61.98
70544;BME280;58097;48.364;-1.224;2022-08-01T12:42:47;100114.84;;;23.01;62.61
70544;BME280;58097;48.364;-1.224;2022-08-01T12:45:17;100114.13;;;23.05;62.43
70544;BME280;58097;48.364;-1.224;2022-08-01T12:47:43;100121.00;;;23.09;62.19
70544;BME280;58097;48.364;-1.224;2022-08-01T12:50:21;100125.31;;;23.12;62.32
70544;BME280;58097;48.364;-1.224;2022-08-01T12:52:48;100120.53;;;23.12;61.86
70544;BME280;58097;48.364;-1.224;2022-08-01T12:55:19;100119.28;;;23.08;61.61
70544;BME280;58097;48.364;-1.224;2022-08-01T12:57:48;100120.63;;;23.06;61.89
70544;BME280;58097;48.364;-1.224;2022-08-01T13:00:36;100130.75;;;22.95;61.23
70544;BME280;58097;48.364;-1.224;2022-08-01T13:03:05;100135.25;;;22.84;61.77
70544;BME280;58097;48.364;-1.224;2022-08-01T13:05:54;100130.09;;;22.75;62.00
70544;BME280;58097;48.364;-1.224;2022-08-01T13:11:09;100126.44;;;22.74;62.58